Santa Pola, Spain
Current Conditions -  °F | °C
As of 3:30 AM on Thursday 23 Oct 2014 (Local Time) from LEAL Reporting Station
Clear Clear  
Wind Chill: 59°   Ceiling: Unl
Heat Index: 59°   Visibility: 6mi
Dew Point: 52°   Wind: 5mph
Humidity: 77%   Direction: 240°WSW
Pressure: 30.21"   Gusts: NA
Location:  38.19°N, 0.56°W
Report Text: LEAL 230130Z 24004KT CAVOK 15/11 Q1023 NOSIG
Loading
Personal Weather Stations






























Interactive Weather Map
Tropical Storm Tracking
New forecast layout! Learn more

10-Day Weather Forecast

Advertisements
Track Severe Weather on mobile